sensor_id;sensor_type;location;lat;lon;timestamp;temperature;humidity
21540;DHT22;10931;52.164;5.518;2022-10-18T00:01:36;20.70;71.90
21540;DHT22;10931;52.164;5.518;2022-10-18T00:04:01;20.60;71.90
21540;DHT22;10931;52.164;5.518;2022-10-18T00:06:33;20.60;71.80
21540;DHT22;10931;52.164;5.518;2022-10-18T00:09:02;20.60;71.80
21540;DHT22;10931;52.164;5.518;2022-10-18T00:11:33;20.70;72.00
21540;DHT22;10931;52.164;5.518;2022-10-18T00:13:59;20.60;71.80
21540;DHT22;10931;52.164;5.518;2022-10-18T00:16:26;20.60;71.80
21540;DHT22;10931;52.164;5.518;2022-10-18T00:18:52;20.60;71.80
21540;DHT22;10931;52.164;5.518;2022-10-18T00:21:20;20.60;71.80
21540;DHT22;10931;52.164;5.518;2022-10-18T00:23:49;20.60;71.80
21540;DHT22;10931;52.164;5.518;2022-10-18T00:26:23;20.60;71.80
21540;DHT22;10931;52.164;5.518;2022-10-18T00:28:58;20.60;71.80
21540;DHT22;10931;52.164;5.518;2022-10-18T00:31:33;20.60;71.80
21540;DHT22;10931;52.164;5.518;2022-10-18T00:34:02;20.60;71.80
21540;DHT22;10931;52.164;5.518;2022-10-18T00:36:30;20.60;71.80
21540;DHT22;10931;52.164;5.518;2022-10-18T00:39:04;20.60;71.80
21540;DHT22;10931;52.164;5.518;2022-10-18T00:41:57;20.60;71.80
21540;DHT22;10931;52.164;5.518;2022-10-18T00:47:04;20.60;71.80
21540;DHT22;10931;52.164;5.518;2022-10-18T00:53:00;20.60;71.80
21540;DHT22;10931;52.164;5.518;2022-10-18T00:55:38;20.60;71.80
21540;DHT22;10931;52.164;5.518;2022-10-18T00:58:16;20.60;71.80
21540;DHT22;10931;52.164;5.518;2022-10-18T01:03:42;20.60;71.80
21540;DHT22;10931;52.164;5.518;2022-10-18T01:06:11;20.60;71.80
21540;DHT22;10931;52.164;5.518;2022-10-18T01:08:58;20.60;71.80
21540;DHT22;10931;52.164;5.518;2022-10-18T01:17:02;20.50;71.70
21540;DHT22;10931;52.164;5.518;2022-10-18T01:19:51;20.50;71.70
21540;DHT22;10931;52.164;5.518;2022-10-18T01:31:38;20.60;71.80
21540;DHT22;10931;52.164;5.518;2022-10-18T01:34:09;20.60;71.80
21540;DHT22;10931;52.164;5.518;2022-10-18T01:37:12;20.50;71.80
21540;DHT22;10931;52.164;5.518;2022-10-18T01:39:44;20.50;71.70
21540;DHT22;10931;52.164;5.518;2022-10-18T01:42:12;20.60;71.80
21540;DHT22;10931;52.164;5.518;2022-10-18T01:44:51;20.50;71.80
21540;DHT22;10931;52.164;5.518;2022-10-18T01:47:26;20.50;71.70
21540;DHT22;10931;52.164;5.518;2022-10-18T01:50:09;20.50;71.70
21540;DHT22;10931;52.164;5.518;2022-10-18T01:52:54;20.50;71.70
21540;DHT22;10931;52.164;5.518;2022-10-18T01:59:34;20.50;71.70
21540;DHT22;10931;52.164;5.518;2022-10-18T02:11:18;20.50;71.80
21540;DHT22;10931;52.164;5.518;2022-10-18T02:17:15;20.50;71.70
21540;DHT22;10931;52.164;5.518;2022-10-18T02:19:49;20.50;71.70
21540;DHT22;10931;52.164;5.518;2022-10-18T02:22:38;20.50;71.80
21540;DHT22;10931;52.164;5.518;2022-10-18T02:25:29;20.50;71.70
21540;DHT22;10931;52.164;5.518;2022-10-18T02:28:01;20.50;71.80
21540;DHT22;10931;52.164;5.518;2022-10-18T02:30:40;20.50;71.70
21540;DHT22;10931;52.164;5.518;2022-10-18T02:33:20;20.50;71.70
21540;DHT22;10931;52.164;5.518;2022-10-18T02:35:51;20.50;71.80
21540;DHT22;10931;52.164;5.518;2022-10-18T02:38:23;20.50;71.70
21540;DHT22;10931;52.164;5.518;2022-10-18T02:40:57;20.50;71.70
21540;DHT22;10931;52.164;5.518;2022-10-18T02:43:32;20.50;71.80
21540;DHT22;10931;52.164;5.518;2022-10-18T02:46:06;20.50;71.70
21540;DHT22;10931;52.164;5.518;2022-10-18T02:48:37;20.50;71.70
21540;DHT22;10931;52.164;5.518;2022-10-18T02:51:13;20.40;71.70
21540;DHT22;10931;52.164;5.518;2022-10-18T02:53:41;20.50;71.70
21540;DHT22;10931;52.164;5.518;2022-10-18T02:56:10;20.40;71.70
21540;DHT22;10931;52.164;5.518;2022-10-18T02:58:39;20.40;71.70
21540;DHT22;10931;52.164;5.518;2022-10-18T03:01:15;20.40;71.60
21540;DHT22;10931;52.164;5.518;2022-10-18T03:03:46;20.40;71.70
21540;DHT22;10931;52.164;5.518;2022-10-18T03:06:29;20.40;71.70
21540;DHT22;10931;52.164;5.518;2022-10-18T03:09:02;20.40;71.70
21540;DHT22;10931;52.164;5.518;2022-10-18T03:11:31;20.40;71.70
21540;DHT22;10931;52.164;5.518;2022-10-18T03:14:09;20.50;71.70
21540;DHT22;10931;52.164;5.518;2022-10-18T03:16:43;20.40;71.70
21540;DHT22;10931;52.164;5.518;2022-10-18T03:19:09;20.40;71.70
21540;DHT22;10931;52.164;5.518;2022-10-18T03:21:56;20.40;71.70
21540;DHT22;10931;52.164;5.518;2022-10-18T03:24:24;20.40;71.70
21540;DHT22;10931;52.164;5.518;2022-10-18T03:26:56;20.40;71.70
21540;DHT22;10931;52.164;5.518;2022-10-18T03:29:22;20.40;71.70
21540;DHT22;10931;52.164;5.518;2022-10-18T03:31:47;20.40;71.60
21540;DHT22;10931;52.164;5.518;2022-10-18T03:34:13;20.40;71.70
21540;DHT22;10931;52.164;5.518;2022-10-18T03:36:46;20.40;71.70
21540;DHT22;10931;52.164;5.518;2022-10-18T03:39:12;20.40;71.70
21540;DHT22;10931;52.164;5.518;2022-10-18T03:41:42;20.40;71.70
21540;DHT22;10931;52.164;5.518;2022-10-18T03:44:10;20.40;72.40
21540;DHT22;10931;52.164;5.518;2022-10-18T03:46:38;20.40;71.70
21540;DHT22;10931;52.164;5.518;2022-10-18T03:49:06;20.40;71.70
21540;DHT22;10931;52.164;5.518;2022-10-18T03:51:39;20.40;71.70
21540;DHT22;10931;52.164;5.518;2022-10-18T03:54:07;20.40;71.70
21540;DHT22;10931;52.164;5.518;2022-10-18T03:56:40;20.40;71.70
21540;DHT22;10931;52.164;5.518;2022-10-18T03:59:13;20.40;71.70
21540;DHT22;10931;52.164;5.518;2022-10-18T04:01:41;20.40;71.70
21540;DHT22;10931;52.164;5.518;2022-10-18T04:04:06;20.40;71.70
21540;DHT22;10931;52.164;5.518;2022-10-18T04:06:34;20.40;71.70
21540;DHT22;10931;52.164;5.518;2022-10-18T04:09:01;20.40;71.60
21540;DHT22;10931;52.164;5.518;2022-10-18T04:11:32;20.40;71.70
21540;DHT22;10931;52.164;5.518;2022-10-18T04:14:26;20.30;71.50
21540;DHT22;10931;52.164;5.518;2022-10-18T04:16:56;20.40;71.70
21540;DHT22;10931;52.164;5.518;2022-10-18T04:19:21;20.40;71.70
21540;DHT22;10931;52.164;5.518;2022-10-18T04:21:50;20.40;71.70
21540;DHT22;10931;52.164;5.518;2022-10-18T04:24:16;20.30;71.60
21540;DHT22;10931;52.164;5.518;2022-10-18T04:26:42;20.40;71.70
21540;DHT22;10931;52.164;5.518;2022-10-18T04:29:08;20.30;71.50
21540;DHT22;10931;52.164;5.518;2022-10-18T04:31:41;20.30;71.50
21540;DHT22;10931;52.164;5.518;2022-10-18T04:34:09;20.30;71.60
21540;DHT22;10931;52.164;5.518;2022-10-18T04:36:48;20.30;71.60
21540;DHT22;10931;52.164;5.518;2022-10-18T04:39:19;20.30;71.60
21540;DHT22;10931;52.164;5.518;2022-10-18T04:41:57;20.30;71.50
21540;DHT22;10931;52.164;5.518;2022-10-18T04:47:48;20.30;71.50
21540;DHT22;10931;52.164;5.518;2022-10-18T04:50:16;20.30;71.60
21540;DHT22;10931;52.164;5.518;2022-10-18T04:59:05;20.30;71.60
21540;DHT22;10931;52.164;5.518;2022-10-18T05:10:00;20.30;71.60
21540;DHT22;10931;52.164;5.518;2022-10-18T05:12:31;20.20;71.50
21540;DHT22;10931;52.164;5.518;2022-10-18T05:14:59;20.20;71.50
21540;DHT22;10931;52.164;5.518;2022-10-18T05:17:35;20.20;71.50
21540;DHT22;10931;52.164;5.518;2022-10-18T05:20:07;20.20;71.50
21540;DHT22;10931;52.164;5.518;2022-10-18T05:23:04;20.20;71.50
21540;DHT22;10931;52.164;5.518;2022-10-18T05:25:45;20.20;71.50
21540;DHT22;10931;52.164;5.518;2022-10-18T05:28:12;20.20;71.50
21540;DHT22;10931;52.164;5.518;2022-10-18T05:30:41;20.20;71.50
21540;DHT22;10931;52.164;5.518;2022-10-18T05:33:07;20.20;71.50
21540;DHT22;10931;52.164;5.518;2022-10-18T05:35:35;20.30;71.60
21540;DHT22;10931;52.164;5.518;2022-10-18T05:38:12;20.20;71.50
21540;DHT22;10931;52.164;5.518;2022-10-18T05:40:38;20.30;71.60
21540;DHT22;10931;52.164;5.518;2022-10-18T05:49:22;20.20;71.50
21540;DHT22;10931;52.164;5.518;2022-10-18T05:55:15;20.20;71.50
21540;DHT22;10931;52.164;5.518;2022-10-18T05:58:00;20.20;71.50
21540;DHT22;10931;52.164;5.518;2022-10-18T06:00:29;20.20;71.50
21540;DHT22;10931;52.164;5.518;2022-10-18T06:03:16;20.20;71.50
21540;DHT22;10931;52.164;5.518;2022-10-18T06:05:41;20.20;71.50
21540;DHT22;10931;52.164;5.518;2022-10-18T06:08:12;20.20;71.50
21540;DHT22;10931;52.164;5.518;2022-10-18T06:10:49;20.20;71.50
21540;DHT22;10931;52.164;5.518;2022-10-18T06:13:17;20.20;71.50
21540;DHT22;10931;52.164;5.518;2022-10-18T06:15:43;20.20;71.50
21540;DHT22;10931;52.164;5.518;2022-10-18T06:18:13;20.20;71.50
21540;DHT22;10931;52.164;5.518;2022-10-18T06:20:44;20.20;71.50
21540;DHT22;10931;52.164;5.518;2022-10-18T06:23:12;20.20;71.60
21540;DHT22;10931;52.164;5.518;2022-10-18T06:25:40;20.20;71.50
21540;DHT22;10931;52.164;5.518;2022-10-18T06:28:08;20.20;71.50
21540;DHT22;10931;52.164;5.518;2022-10-18T06:33:55;20.10;71.50
21540;DHT22;10931;52.164;5.518;2022-10-18T06:59:59;20.10;71.50
21540;DHT22;10931;52.164;5.518;2022-10-18T07:02:25;20.10;71.50
21540;DHT22;10931;52.164;5.518;2022-10-18T07:07:52;20.10;71.50
21540;DHT22;10931;52.164;5.518;2022-10-18T07:23:51;20.00;71.50
21540;DHT22;10931;52.164;5.518;2022-10-18T07:35:53;20.00;71.50
21540;DHT22;10931;52.164;5.518;2022-10-18T07:38:29;20.00;71.50
21540;DHT22;10931;52.164;5.518;2022-10-18T07:52:44;20.00;71.80
21540;DHT22;10931;52.164;5.518;2022-10-18T07:55:37;20.10;71.80
21540;DHT22;10931;52.164;5.518;2022-10-18T08:11:15;20.10;72.00
21540;DHT22;10931;52.164;5.518;2022-10-18T08:14:08;20.10;72.00
21540;DHT22;10931;52.164;5.518;2022-10-18T08:16:45;20.10;72.00
21540;DHT22;10931;52.164;5.518;2022-10-18T08:19:37;20.10;72.10
21540;DHT22;10931;52.164;5.518;2022-10-18T08:25:53;20.20;72.20
21540;DHT22;10931;52.164;5.518;2022-10-18T08:28:19;20.10;72.10
21540;DHT22;10931;52.164;5.518;2022-10-18T08:31:08;20.10;72.10
21540;DHT22;10931;52.164;5.518;2022-10-18T08:56:29;20.20;72.30
21540;DHT22;10931;52.164;5.518;2022-10-18T08:59:01;20.30;72.30
21540;DHT22;10931;52.164;5.518;2022-10-18T09:01:58;20.30;72.30
21540;DHT22;10931;52.164;5.518;2022-10-18T09:16:14;20.40;72.40
21540;DHT22;10931;52.164;5.518;2022-10-18T09:18:55;20.40;72.50
21540;DHT22;10931;52.164;5.518;2022-10-18T09:40:50;20.50;73.00
21540;DHT22;10931;52.164;5.518;2022-10-18T10:00:45;20.60;73.30
21540;DHT22;10931;52.164;5.518;2022-10-18T10:03:18;20.60;73.30
21540;DHT22;10931;52.164;5.518;2022-10-18T10:06:45;20.70;73.40
21540;DHT22;10931;52.164;5.518;2022-10-18T10:09:06;20.70;73.40
21540;DHT22;10931;52.164;5.518;2022-10-18T10:11:38;20.70;73.40
21540;DHT22;10931;52.164;5.518;2022-10-18T10:14:15;20.70;73.40
21540;DHT22;10931;52.164;5.518;2022-10-18T10:20:03;20.80;73.40
21540;DHT22;10931;52.164;5.518;2022-10-18T10:22:42;20.80;73.40
21540;DHT22;10931;52.164;5.518;2022-10-18T10:25:29;20.80;73.40
21540;DHT22;10931;52.164;5.518;2022-10-18T10:28:02;20.80;73.40
21540;DHT22;10931;52.164;5.518;2022-10-18T10:30:35;20.80;73.40
21540;DHT22;10931;52.164;5.518;2022-10-18T10:33:05;20.80;73.40
21540;DHT22;10931;52.164;5.518;2022-10-18T10:35:37;20.90;73.40
21540;DHT22;10931;52.164;5.518;2022-10-18T10:38:04;20.80;73.30
21540;DHT22;10931;52.164;5.518;2022-10-18T10:40:32;20.80;73.30
21540;DHT22;10931;52.164;5.518;2022-10-18T10:43:23;20.90;73.40
21540;DHT22;10931;52.164;5.518;2022-10-18T10:46:02;20.90;73.30
21540;DHT22;10931;52.164;5.518;2022-10-18T10:48:56;20.90;73.30
21540;DHT22;10931;52.164;5.518;2022-10-18T10:51:33;20.90;73.20
21540;DHT22;10931;52.164;5.518;2022-10-18T10:54:16;20.90;74.00
21540;DHT22;10931;52.164;5.518;2022-10-18T11:00:30;20.90;73.20
21540;DHT22;10931;52.164;5.518;2022-10-18T11:05:48;21.00;73.20
21540;DHT22;10931;52.164;5.518;2022-10-18T11:08:30;21.00;73.20
21540;DHT22;10931;52.164;5.518;2022-10-18T11:11:22;21.00;73.20
21540;DHT22;10931;52.164;5.518;2022-10-18T11:14:29;21.00;73.20
21540;DHT22;10931;52.164;5.518;2022-10-18T11:17:02;21.00;73.20
21540;DHT22;10931;52.164;5.518;2022-10-18T11:22:30;21.00;73.10
21540;DHT22;10931;52.164;5.518;2022-10-18T11:24:58;21.10;73.10
21540;DHT22;10931;52.164;5.518;2022-10-18T11:33:58;21.10;73.10
21540;DHT22;10931;52.164;5.518;2022-10-18T11:36:35;21.20;73.20
21540;DHT22;10931;52.164;5.518;2022-10-18T11:41:59;21.20;73.10
21540;DHT22;10931;52.164;5.518;2022-10-18T11:44:53;21.20;73.10
21540;DHT22;10931;52.164;5.518;2022-10-18T11:47:48;21.20;73.10
21540;DHT22;10931;52.164;5.518;2022-10-18T11:50:55;21.30;73.20
21540;DHT22;10931;52.164;5.518;2022-10-18T11:56:34;21.30;73.20
21540;DHT22;10931;52.164;5.518;2022-10-18T11:59:10;21.30;73.10
21540;DHT22;10931;52.164;5.518;2022-10-18T12:11:00;21.40;73.20
21540;DHT22;10931;52.164;5.518;2022-10-18T12:13:52;21.40;73.20
21540;DHT22;10931;52.164;5.518;2022-10-18T12:16:32;21.40;73.20
21540;DHT22;10931;52.164;5.518;2022-10-18T12:19:35;21.50;73.20
21540;DHT22;10931;52.164;5.518;2022-10-18T12:25:41;21.50;73.20
21540;DHT22;10931;52.164;5.518;2022-10-18T12:31:30;21.60;73.20
21540;DHT22;10931;52.164;5.518;2022-10-18T12:34:12;21.60;73.20
21540;DHT22;10931;52.164;5.518;2022-10-18T12:40:47;21.70;73.20
21540;DHT22;10931;52.164;5.518;2022-10-18T12:43:51;21.70;73.10
21540;DHT22;10931;52.164;5.518;2022-10-18T12:50:00;21.80;73.20
21540;DHT22;10931;52.164;5.518;2022-10-18T12:53:22;21.80;73.10
21540;DHT22;10931;52.164;5.518;2022-10-18T12:56:36;21.90;73.20
21540;DHT22;10931;52.164;5.518;2022-10-18T13:02:25;21.90;73.00
21540;DHT22;10931;52.164;5.518;2022-10-18T13:08:34;21.90;73.00
21540;DHT22;10931;52.164;5.518;2022-10-18T13:19:51;22.00;72.90
21540;DHT22;10931;52.164;5.518;2022-10-18T13:31:46;22.10;72.80
21540;DHT22;10931;52.164;5.518;2022-10-18T13:34:47;22.10;72.70
21540;DHT22;10931;52.164;5.518;2022-10-18T14:27:57;22.20;72.20
21540;DHT22;10931;52.164;5.518;2022-10-18T14:41:33;22.20;72.20
21540;DHT22;10931;52.164;5.518;2022-10-18T14:49:51;22.20;72.10
21540;DHT22;10931;52.164;5.518;2022-10-18T14:52:53;22.20;72.10
21540;DHT22;10931;52.164;5.518;2022-10-18T15:08:22;22.30;72.10
21540;DHT22;10931;52.164;5.518;2022-10-18T15:16:42;22.30;72.10
21540;DHT22;10931;52.164;5.518;2022-10-18T15:25:23;22.20;72.10
21540;DHT22;10931;52.164;5.518;2022-10-18T15:31:16;22.30;72.10
21540;DHT22;10931;52.164;5.518;2022-10-18T15:37:55;22.30;72.00
21540;DHT22;10931;52.164;5.518;2022-10-18T15:40:44;22.30;72.00
21540;DHT22;10931;52.164;5.518;2022-10-18T16:31:26;22.20;71.50
21540;DHT22;10931;52.164;5.518;2022-10-18T17:30:04;22.10;71.30
21540;DHT22;10931;52.164;5.518;2022-10-18T20:41:17;21.40;70.60
21540;DHT22;10931;52.164;5.518;2022-10-18T20:46:18;21.40;70.60
21540;DHT22;10931;52.164;5.518;2022-10-18T20:49:03;21.40;70.60
21540;DHT22;10931;52.164;5.518;2022-10-18T20:54:18;21.40;70.50
21540;DHT22;10931;52.164;5.518;2022-10-18T20:56:47;21.30;70.50
21540;DHT22;10931;52.164;5.518;2022-10-18T20:59:41;21.40;70.50
21540;DHT22;10931;52.164;5.518;2022-10-18T21:02:15;21.30;70.30
21540;DHT22;10931;52.164;5.518;2022-10-18T21:05:07;21.30;70.30
21540;DHT22;10931;52.164;5.518;2022-10-18T21:08:18;21.30;70.30
21540;DHT22;10931;52.164;5.518;2022-10-18T21:10:44;21.30;70.30
21540;DHT22;10931;52.164;5.518;2022-10-18T21:13:11;21.30;70.30
21540;DHT22;10931;52.164;5.518;2022-10-18T21:15:37;21.30;70.20
21540;DHT22;10931;52.164;5.518;2022-10-18T21:18:06;21.30;70.20
21540;DHT22;10931;52.164;5.518;2022-10-18T21:20:38;21.30;70.20
21540;DHT22;10931;52.164;5.518;2022-10-18T21:29:50;21.20;70.10
21540;DHT22;10931;52.164;5.518;2022-10-18T21:32:45;21.20;70.00
21540;DHT22;10931;52.164;5.518;2022-10-18T21:35:24;21.20;70.00
21540;DHT22;10931;52.164;5.518;2022-10-18T21:38:11;21.20;70.00
21540;DHT22;10931;52.164;5.518;2022-10-18T21:40:40;21.20;70.00
21540;DHT22;10931;52.164;5.518;2022-10-18T21:43:16;21.20;70.00
21540;DHT22;10931;52.164;5.518;2022-10-18T21:46:20;21.20;69.90
21540;DHT22;10931;52.164;5.518;2022-10-18T21:49:06;21.20;69.80
21540;DHT22;10931;52.164;5.518;2022-10-18T21:51:33;21.10;69.80
21540;DHT22;10931;52.164;5.518;2022-10-18T21:54:09;21.10;69.80
21540;DHT22;10931;52.164;5.518;2022-10-18T21:57:02;21.10;69.80
21540;DHT22;10931;52.164;5.518;2022-10-18T22:00:14;21.10;69.80
21540;DHT22;10931;52.164;5.518;2022-10-18T22:03:18;21.10;69.70
21540;DHT22;10931;52.164;5.518;2022-10-18T22:09:17;21.10;69.60
21540;DHT22;10931;52.164;5.518;2022-10-18T22:11:54;21.10;69.60
21540;DHT22;10931;52.164;5.518;2022-10-18T22:14:24;21.00;69.50
21540;DHT22;10931;52.164;5.518;2022-10-18T22:17:08;21.00;69.50
21540;DHT22;10931;52.164;5.518;2022-10-18T22:19:37;21.00;69.50
21540;DHT22;10931;52.164;5.518;2022-10-18T22:22:09;21.00;69.50
21540;DHT22;10931;52.164;5.518;2022-10-18T22:25:23;21.00;69.40
21540;DHT22;10931;52.164;5.518;2022-10-18T22:27:56;21.00;69.40
21540;DHT22;10931;52.164;5.518;2022-10-18T22:30:38;21.00;69.40
21540;DHT22;10931;52.164;5.518;2022-10-18T22:33:40;21.00;69.30
21540;DHT22;10931;52.164;5.518;2022-10-18T22:36:10;20.90;69.30
21540;DHT22;10931;52.164;5.518;2022-10-18T22:38:48;20.90;69.30
21540;DHT22;10931;52.164;5.518;2022-10-18T22:41:21;20.90;69.20
21540;DHT22;10931;52.164;5.518;2022-10-18T22:43:54;20.90;69.20
21540;DHT22;10931;52.164;5.518;2022-10-18T22:46:27;20.90;69.20
21540;DHT22;10931;52.164;5.518;2022-10-18T22:49:10;20.90;69.20
21540;DHT22;10931;52.164;5.518;2022-10-18T22:51:42;20.90;69.20
21540;DHT22;10931;52.164;5.518;2022-10-18T22:54:18;20.90;69.10
21540;DHT22;10931;52.164;5.518;2022-10-18T22:56:44;20.90;69.10
21540;DHT22;10931;52.164;5.518;2022-10-18T22:59:31;20.90;69.10
21540;DHT22;10931;52.164;5.518;2022-10-18T23:02:01;20.90;69.00
21540;DHT22;10931;52.164;5.518;2022-10-18T23:04:40;20.80;69.00
21540;DHT22;10931;52.164;5.518;2022-10-18T23:07:13;20.80;68.90
21540;DHT22;10931;52.164;5.518;2022-10-18T23:15:48;20.80;68.90
21540;DHT22;10931;52.164;5.518;2022-10-18T23:21:41;20.80;68.90
21540;DHT22;10931;52.164;5.518;2022-10-18T23:24:10;20.70;68.80
21540;DHT22;10931;52.164;5.518;2022-10-18T23:26:35;20.70;68.70
21540;DHT22;10931;52.164;5.518;2022-10-18T23:29:07;20.70;68.70
21540;DHT22;10931;52.164;5.518;2022-10-18T23:31:43;20.70;68.70
21540;DHT22;10931;52.164;5.518;2022-10-18T23:34:17;20.70;68.70
21540;DHT22;10931;52.164;5.518;2022-10-18T23:36:43;20.70;68.70
21540;DHT22;10931;52.164;5.518;2022-10-18T23:39:13;20.70;68.70
21540;DHT22;10931;52.164;5.518;2022-10-18T23:42:05;20.70;68.60
21540;DHT22;10931;52.164;5.518;2022-10-18T23:48:02;20.60;68.50
21540;DHT22;10931;52.164;5.518;2022-10-18T23:50:53;20.60;68.50
21540;DHT22;10931;52.164;5.518;2022-10-18T23:53:27;20.60;68.50
21540;DHT22;10931;52.164;5.518;2022-10-18T23:56:09;20.60;68.40
21540;DHT22;10931;52.164;5.518;2022-10-18T23:58:44;20.60;68.40
